createdAt,value
2019-06-08T00:01:35.667Z,17.30
2019-06-08T00:04:05.954Z,17.40
2019-06-08T00:06:36.201Z,17.40
2019-06-08T00:09:06.462Z,17.40
2019-06-08T00:11:36.641Z,17.40
2019-06-08T00:14:06.837Z,17.40
2019-06-08T00:16:37.116Z,17.60
2019-06-08T00:19:07.284Z,17.30
2019-06-08T00:21:37.493Z,17.20
2019-06-08T00:24:07.658Z,17.10
2019-06-08T00:26:37.860Z,17.10
2019-06-08T00:29:08.027Z,17.00
2019-06-08T00:31:38.213Z,17.20
2019-06-08T00:34:08.401Z,17.20
2019-06-08T00:36:38.605Z,17.40
2019-06-08T00:39:09.651Z,17.60
2019-06-08T00:41:39.853Z,17.50
2019-06-08T00:44:10.090Z,17.30
2019-06-08T00:46:40.287Z,17.20
2019-06-08T00:49:10.472Z,17.10
2019-06-08T00:51:40.741Z,17.00
2019-06-08T00:54:11.990Z,17.10
2019-06-08T00:56:42.192Z,17.10
2019-06-08T00:59:12.395Z,17.00
2019-06-08T01:01:42.643Z,17.10
2019-06-08T01:04:14.270Z,17.20
2019-06-08T01:06:44.788Z,17.40
2019-06-08T01:09:16.507Z,17.20
2019-06-08T01:11:47.074Z,17.10
2019-06-08T01:14:18.824Z,17.00
2019-06-08T01:16:49.101Z,16.90
2019-06-08T01:19:19.270Z,16.80
2019-06-08T01:21:49.540Z,16.90
2019-06-08T01:24:21.607Z,17.10
2019-06-08T01:26:51.822Z,17.10
2019-06-08T01:29:22.307Z,16.90
2019-06-08T01:31:52.664Z,16.70
2019-06-08T01:34:22.929Z,16.80
2019-06-08T01:36:53.094Z,16.80
2019-06-08T01:39:23.286Z,16.70
2019-06-08T01:41:53.466Z,16.80
2019-06-08T01:44:23.659Z,17.10
2019-06-08T01:46:54.194Z,16.90
2019-06-08T01:49:24.407Z,17.00
2019-06-08T01:51:54.594Z,17.00
2019-06-08T01:54:24.859Z,17.10
2019-06-08T01:56:55.069Z,17.10
2019-06-08T01:59:25.341Z,17.00
2019-06-08T02:01:55.531Z,17.10
2019-06-08T02:04:26.060Z,17.00
2019-06-08T02:06:56.294Z,16.90
2019-06-08T02:09:26.551Z,16.90
2019-06-08T02:11:56.768Z,16.70
2019-06-08T02:14:27.134Z,16.80
2019-06-08T02:16:57.315Z,16.70
2019-06-08T02:19:28.391Z,16.60
2019-06-08T02:21:58.170Z,16.50
2019-06-08T02:24:29.196Z,16.60
2019-06-08T02:26:59.464Z,16.50
2019-06-08T02:29:29.714Z,16.40
2019-06-08T02:31:59.968Z,16.50
2019-06-08T02:34:30.759Z,16.50
2019-06-08T02:37:02.054Z,16.50
2019-06-08T02:39:32.746Z,16.50
2019-06-08T02:42:03.128Z,16.60
2019-06-08T02:44:34.456Z,16.50
2019-06-08T02:47:05.543Z,16.50
2019-06-08T02:49:37.478Z,16.40
2019-06-08T02:52:07.771Z,16.40
2019-06-08T02:54:39.544Z,16.50
2019-06-08T02:57:10.206Z,16.40
2019-06-08T02:59:41.062Z,16.60
2019-06-08T03:02:11.344Z,16.50
2019-06-08T03:04:41.543Z,16.50
2019-06-08T03:07:11.808Z,16.50
2019-06-08T03:09:42.062Z,16.60
2019-06-08T03:12:12.585Z,16.60
2019-06-08T03:14:42.790Z,16.40
2019-06-08T03:17:12.998Z,16.30
2019-06-08T03:19:43.185Z,16.20
2019-06-08T03:22:13.448Z,16.40
2019-06-08T03:24:44.181Z,16.60
2019-06-08T03:27:14.491Z,16.30
2019-06-08T03:29:44.947Z,16.40
2019-06-08T03:32:15.135Z,16.30
2019-06-08T03:34:54.377Z,16.20
2019-06-08T03:37:18.311Z,16.30
2019-06-08T03:39:48.563Z,16.40
2019-06-08T03:42:18.754Z,16.20
2019-06-08T03:44:48.938Z,16.00
2019-06-08T03:47:19.137Z,16.00
2019-06-08T03:49:56.347Z,16.00
2019-06-08T03:52:21.214Z,16.10
2019-06-08T03:54:51.395Z,16.00
2019-06-08T03:57:21.587Z,16.10
2019-06-08T03:59:51.766Z,16.00
2019-06-08T04:02:22.039Z,16.10
2019-06-08T04:04:52.324Z,16.00
2019-06-08T04:07:22.511Z,16.10
2019-06-08T04:09:52.707Z,16.10
2019-06-08T04:12:22.904Z,16.20
2019-06-08T04:14:53.094Z,16.10
2019-06-08T04:17:23.360Z,16.10
2019-06-08T04:20:09.762Z,16.00
2019-06-08T04:22:25.470Z,16.00
2019-06-08T04:24:55.804Z,16.10
2019-06-08T04:27:26.042Z,15.90
2019-06-08T04:29:56.299Z,15.90
2019-06-08T04:32:26.492Z,15.70
2019-06-08T04:34:56.695Z,15.90
2019-06-08T04:37:26.875Z,15.90
2019-06-08T04:39:57.350Z,15.80
2019-06-08T04:42:34.887Z,15.90
2019-06-08T04:45:07.084Z,16.00
2019-06-08T04:47:38.437Z,16.00
2019-06-08T04:50:21.526Z,16.00
2019-06-08T04:52:40.957Z,16.00
2019-06-08T04:55:12.821Z,16.10
2019-06-08T04:57:43.788Z,16.20
2019-06-08T05:00:15.133Z,16.10
2019-06-08T05:02:47.039Z,16.10
2019-06-08T05:05:17.245Z,15.90
2019-06-08T05:07:48.486Z,15.70
2019-06-08T05:10:19.406Z,15.60
2019-06-08T05:13:10.678Z,15.60
2019-06-08T05:15:41.381Z,15.40
2019-06-08T05:18:11.835Z,15.40
2019-06-08T05:20:45.009Z,15.40
2019-06-08T05:23:13.974Z,15.40
2019-06-08T05:25:45.156Z,15.50
2019-06-08T05:28:15.596Z,15.80
2019-06-08T05:30:47.399Z,15.80
2019-06-08T05:33:17.793Z,15.80
2019-06-08T05:35:47.986Z,15.70
2019-06-08T05:38:18.159Z,15.80
2019-06-08T05:40:48.351Z,15.70
2019-06-08T05:43:18.578Z,15.60
2019-06-08T05:45:51.908Z,15.50
2019-06-08T05:48:22.091Z,15.60
2019-06-08T05:51:03.125Z,15.50
2019-06-08T05:53:24.214Z,15.40
2019-06-08T05:55:54.421Z,15.30
2019-06-08T05:58:24.603Z,15.40
2019-06-08T06:00:54.811Z,15.50
2019-06-08T06:03:25.068Z,15.50
2019-06-08T06:05:55.258Z,15.60
2019-06-08T06:08:25.527Z,15.60
2019-06-08T06:10:55.712Z,15.60
2019-06-08T06:13:25.894Z,15.60
2019-06-08T06:15:56.082Z,15.60
2019-06-08T06:18:26.330Z,15.70
2019-06-08T06:21:09.701Z,15.70
2019-06-08T06:23:28.407Z,15.50
2019-06-08T06:25:58.592Z,15.40
2019-06-08T06:28:28.792Z,15.30
2019-06-08T06:30:59.048Z,15.30
2019-06-08T06:33:29.278Z,15.30
2019-06-08T06:35:59.523Z,15.30
2019-06-08T06:38:29.721Z,15.30
2019-06-08T06:41:00.368Z,15.20
2019-06-08T06:43:30.401Z,15.30
2019-06-08T06:46:00.724Z,15.00
2019-06-08T06:48:30.928Z,14.80
2019-06-08T06:51:01.194Z,14.90
2019-06-08T06:53:31.468Z,14.80
2019-06-08T06:56:01.722Z,14.90
2019-06-08T06:58:32.010Z,15.00
2019-06-08T07:01:02.210Z,15.00
2019-06-08T07:03:32.420Z,15.00
2019-06-08T07:06:02.591Z,15.00
2019-06-08T07:08:32.790Z,15.10
2019-06-08T07:11:02.988Z,15.00
2019-06-08T07:13:33.321Z,15.00
2019-06-08T07:16:18.080Z,14.90
2019-06-08T07:18:35.417Z,14.80
2019-06-08T07:21:05.674Z,14.50
2019-06-08T07:23:35.884Z,14.60
2019-06-08T07:26:06.138Z,14.70
2019-06-08T07:28:36.334Z,14.70
2019-06-08T07:31:06.523Z,14.90
2019-06-08T07:33:36.778Z,15.10
2019-06-08T07:36:06.969Z,15.30
2019-06-08T07:38:37.242Z,15.40
2019-06-08T07:41:07.460Z,15.40
2019-06-08T07:43:38.025Z,15.40
2019-06-08T07:46:08.193Z,15.40
2019-06-08T07:48:38.395Z,15.20
2019-06-08T07:51:08.587Z,15.00
2019-06-08T07:53:38.831Z,15.30
2019-06-08T07:56:09.167Z,15.50
2019-06-08T07:58:39.368Z,15.70
2019-06-08T08:01:09.706Z,15.70
2019-06-08T08:03:39.903Z,15.80
2019-06-08T08:06:10.139Z,15.90
2019-06-08T08:08:40.340Z,16.10
2019-06-08T08:11:10.529Z,15.90
2019-06-08T08:13:40.715Z,16.00
2019-06-08T08:16:10.912Z,15.90
2019-06-08T08:18:41.151Z,15.90
2019-06-08T08:21:21.284Z,16.10
2019-06-08T08:23:44.258Z,16.10
2019-06-08T08:26:14.530Z,16.20
2019-06-08T08:28:44.724Z,16.40
2019-06-08T08:31:15.363Z,16.50
2019-06-08T08:33:49.726Z,16.60
2019-06-08T08:36:21.052Z,17.10
2019-06-08T08:38:51.807Z,17.50
2019-06-08T08:41:22.126Z,17.80
2019-06-08T08:43:53.296Z,17.40
2019-06-08T08:46:24.230Z,17.30
2019-06-08T08:48:54.419Z,17.30
2019-06-08T08:51:24.619Z,17.30
2019-06-08T08:53:58.489Z,17.30
2019-06-08T08:56:27.977Z,17.30
2019-06-08T08:59:17.624Z,17.10
2019-06-08T09:01:48.268Z,17.00
2019-06-08T09:04:18.955Z,16.80
2019-06-08T09:06:49.194Z,16.80
2019-06-08T09:09:21.654Z,16.60
2019-06-08T09:11:51.563Z,16.60
2019-06-08T09:14:23.120Z,16.50
2019-06-08T09:16:53.735Z,16.50
2019-06-08T09:19:24.163Z,16.40
2019-06-08T09:21:54.465Z,16.50
2019-06-08T09:24:28.491Z,16.70
2019-06-08T09:27:00.853Z,16.70
2019-06-08T09:29:29.884Z,16.70
2019-06-08T09:32:01.882Z,16.40
2019-06-08T09:34:32.022Z,16.50
2019-06-08T09:37:03.482Z,16.50
2019-06-08T09:39:34.111Z,16.60
2019-06-08T09:42:05.067Z,16.60
2019-06-08T09:44:37.498Z,16.80
2019-06-08T09:47:12.155Z,16.70
2019-06-08T09:49:38.535Z,16.70
2019-06-08T09:52:09.066Z,16.50
2019-06-08T09:54:39.288Z,16.40
2019-06-08T09:57:09.662Z,16.60
2019-06-08T09:59:41.427Z,16.80
2019-06-08T10:02:12.991Z,16.90
2019-06-08T10:04:43.565Z,17.10
2019-06-08T10:07:13.876Z,17.30
2019-06-08T10:09:44.067Z,17.50
2019-06-08T10:12:14.405Z,17.70
2019-06-08T10:14:44.662Z,17.60
2019-06-08T10:17:14.846Z,17.60
2019-06-08T10:19:47.565Z,17.70
2019-06-08T10:22:18.621Z,17.50
2019-06-08T10:24:49.191Z,17.40
2019-06-08T10:27:19.597Z,17.50
2019-06-08T10:29:49.873Z,17.40
2019-06-08T10:32:22.268Z,17.30
2019-06-08T10:34:52.508Z,17.20
2019-06-08T10:37:22.727Z,16.90
2019-06-08T10:39:52.983Z,16.70
2019-06-08T10:42:23.366Z,16.60
2019-06-08T10:44:53.607Z,16.70
2019-06-08T10:47:23.865Z,16.80
2019-06-08T10:49:54.182Z,16.80
2019-06-08T10:52:24.504Z,16.80
2019-06-08T10:54:54.696Z,16.90
2019-06-08T10:57:24.956Z,16.80
2019-06-08T10:59:57.557Z,16.90
2019-06-08T11:02:28.223Z,16.80
2019-06-08T11:04:58.775Z,16.70
2019-06-08T11:07:29.547Z,16.80
2019-06-08T11:10:00.306Z,16.70
2019-06-08T11:12:31.680Z,16.70
2019-06-08T11:15:03.585Z,16.90
2019-06-08T11:17:34.223Z,17.20
2019-06-08T11:20:11.138Z,17.40
2019-06-08T11:22:38.692Z,17.50
2019-06-08T11:25:16.057Z,17.70
2019-06-08T11:27:41.734Z,18.10
2019-06-08T11:30:20.729Z,18.10
2019-06-08T11:32:43.878Z,18.30
2019-06-08T11:35:14.054Z,18.40
2019-06-08T11:37:44.248Z,18.50
2019-06-08T11:40:14.572Z,18.50
2019-06-08T11:42:44.755Z,18.40
2019-06-08T11:45:17.528Z,18.70
2019-06-08T11:47:48.479Z,18.90
2019-06-08T11:50:22.303Z,19.60
2019-06-08T11:52:52.509Z,20.10
2019-06-08T11:55:22.760Z,20.40
2019-06-08T11:57:52.965Z,20.80
2019-06-08T12:00:44.598Z,20.60
2019-06-08T12:03:14.088Z,20.10
2019-06-08T12:05:44.091Z,19.20
2019-06-08T12:08:14.282Z,18.50
2019-06-08T12:10:45.688Z,17.90
2019-06-08T12:13:17.481Z,17.90
2019-06-08T12:15:48.830Z,18.00
2019-06-08T12:18:19.448Z,18.20
2019-06-08T12:20:49.642Z,19.10
2019-06-08T12:23:19.824Z,20.00
2019-06-08T12:25:50.016Z,20.40
2019-06-08T12:28:20.203Z,20.90
2019-06-08T12:30:50.399Z,21.10
2019-06-08T12:33:22.791Z,21.40
2019-06-08T12:35:57.781Z,21.90
2019-06-08T12:38:30.012Z,21.80
2019-06-08T12:40:58.991Z,21.40
2019-06-08T12:43:29.191Z,21.00
2019-06-08T12:45:59.370Z,20.70
2019-06-08T12:48:29.557Z,21.10
2019-06-08T12:50:59.736Z,21.40
2019-06-08T12:53:29.998Z,21.70
2019-06-08T12:56:00.192Z,21.80
2019-06-08T12:58:30.450Z,21.80
2019-06-08T13:01:00.652Z,22.00
2019-06-08T13:03:30.915Z,22.20
2019-06-08T13:06:01.083Z,22.20
2019-06-08T13:08:31.298Z,21.60
2019-06-08T13:11:01.480Z,21.20
2019-06-08T13:13:31.672Z,21.30
2019-06-08T13:16:01.867Z,21.00
2019-06-08T13:18:32.087Z,20.80
2019-06-08T13:21:15.471Z,20.90
2019-06-08T13:23:34.239Z,21.10
2019-06-08T13:26:04.417Z,21.80
2019-06-08T13:28:34.735Z,22.50
2019-06-08T13:31:04.989Z,22.70
2019-06-08T13:33:35.266Z,22.70
2019-06-08T13:36:05.435Z,22.20
2019-06-08T13:38:37.946Z,22.10
2019-06-08T13:41:08.829Z,21.80
2019-06-08T13:43:40.535Z,21.40
2019-06-08T13:46:12.087Z,21.20
2019-06-08T13:48:42.281Z,20.90
2019-06-08T13:51:13.916Z,21.00
2019-06-08T13:53:44.423Z,21.30
2019-06-08T13:56:14.764Z,21.30
2019-06-08T13:58:44.998Z,21.00
2019-06-08T14:01:15.462Z,21.40
2019-06-08T14:03:49.793Z,21.40
2019-06-08T14:06:19.061Z,21.30
2019-06-08T14:08:49.932Z,20.50
2019-06-08T14:11:22.080Z,19.90
2019-06-08T14:13:52.033Z,19.90
2019-06-08T14:16:24.597Z,20.30
2019-06-08T14:18:54.086Z,20.90
2019-06-08T14:21:34.177Z,21.30
2019-06-08T14:23:58.604Z,21.20
2019-06-08T14:26:29.585Z,20.90
2019-06-08T14:29:01.493Z,20.60
2019-06-08T14:31:33.276Z,20.60
2019-06-08T14:34:03.466Z,21.20
2019-06-08T14:36:33.726Z,21.90
2019-06-08T14:39:05.158Z,22.50
2019-06-08T14:41:35.418Z,23.10
2019-06-08T14:44:08.150Z,23.30
2019-06-08T14:46:57.969Z,23.00
2019-06-08T14:49:34.535Z,22.70
2019-06-08T14:51:59.710Z,22.90
2019-06-08T14:54:34.726Z,23.00
2019-06-08T14:57:01.884Z,23.40
2019-06-08T14:59:32.151Z,23.10
2019-06-08T15:02:02.340Z,23.00
2019-06-08T15:04:36.502Z,23.30
2019-06-08T15:07:04.565Z,23.30
2019-06-08T15:09:37.420Z,23.40
2019-06-08T15:12:09.053Z,23.10
2019-06-08T15:14:38.966Z,22.90
2019-06-08T15:17:09.515Z,23.00
2019-06-08T15:19:39.527Z,23.00
2019-06-08T15:22:11.279Z,22.60
2019-06-08T15:24:42.818Z,22.70
2019-06-08T15:27:13.066Z,22.90
2019-06-08T15:29:43.275Z,23.00
2019-06-08T15:32:13.462Z,22.70
2019-06-08T15:34:43.725Z,22.60
2019-06-08T15:37:13.919Z,22.20
2019-06-08T15:39:44.495Z,22.10
2019-06-08T15:42:14.755Z,22.00
2019-06-08T15:44:47.831Z,21.80
2019-06-08T15:47:17.852Z,21.20
2019-06-08T15:49:50.467Z,20.50
2019-06-08T15:52:20.347Z,19.90
2019-06-08T15:54:50.544Z,19.40
2019-06-08T15:57:20.739Z,19.20
2019-06-08T15:59:50.915Z,19.30
2019-06-08T16:02:21.185Z,19.70
2019-06-08T16:04:51.457Z,19.90
2019-06-08T16:07:21.766Z,20.10
2019-06-08T16:09:54.870Z,20.00
2019-06-08T16:12:26.158Z,19.80
2019-06-08T16:14:56.551Z,19.30
2019-06-08T16:17:27.103Z,18.60
2019-06-08T16:19:57.399Z,18.30
2019-06-08T16:22:27.713Z,18.50
2019-06-08T16:24:57.989Z,18.90
2019-06-08T16:27:28.229Z,19.20
2019-06-08T16:29:58.490Z,19.30
2019-06-08T16:32:29.226Z,19.10
2019-06-08T16:34:59.531Z,19.00
2019-06-08T16:37:29.725Z,18.90
2019-06-08T16:39:59.901Z,19.00
2019-06-08T16:42:30.202Z,19.00
2019-06-08T16:45:00.538Z,18.90
2019-06-08T16:47:31.125Z,18.80
2019-06-08T16:50:02.340Z,19.00
2019-06-08T16:52:32.551Z,19.20
2019-06-08T16:55:03.492Z,19.20
2019-06-08T16:57:37.550Z,19.40
2019-06-08T17:00:29.975Z,19.60
2019-06-08T17:02:39.317Z,19.60
2019-06-08T17:05:09.645Z,19.60
2019-06-08T17:07:39.887Z,19.70
2019-06-08T17:10:10.103Z,19.50
2019-06-08T17:12:40.279Z,19.40
2019-06-08T17:15:10.579Z,19.40
2019-06-08T17:17:40.765Z,19.30
2019-06-08T17:20:12.032Z,19.30
2019-06-08T17:22:42.211Z,19.20
2019-06-08T17:25:12.714Z,19.30
2019-06-08T17:27:42.935Z,19.50
2019-06-08T17:30:13.123Z,19.70
2019-06-08T17:32:43.381Z,20.00
2019-06-08T17:35:13.630Z,20.20
2019-06-08T17:37:43.822Z,20.40
2019-06-08T17:40:14.098Z,20.30
2019-06-08T17:42:44.295Z,20.10
2019-06-08T17:45:14.499Z,20.00
2019-06-08T17:47:46.365Z,19.70
2019-06-08T17:50:16.634Z,19.60
2019-06-08T17:52:46.883Z,19.60
2019-06-08T17:55:17.082Z,19.60
2019-06-08T17:57:53.231Z,19.50
2019-06-08T18:00:19.218Z,19.50
2019-06-08T18:02:49.495Z,19.40
2019-06-08T18:05:19.686Z,19.40
2019-06-08T18:07:49.883Z,19.30
2019-06-08T18:10:21.056Z,19.10
2019-06-08T18:12:51.325Z,19.10
2019-06-08T18:15:21.522Z,19.10
2019-06-08T18:17:51.714Z,19.00
2019-06-08T18:20:21.931Z,19.00
2019-06-08T18:22:52.121Z,19.00
2019-06-08T18:25:22.373Z,19.00
2019-06-08T18:28:07.096Z,18.90
2019-06-08T18:30:27.649Z,18.90
2019-06-08T18:32:58.305Z,18.90
2019-06-08T18:35:28.598Z,18.90
2019-06-08T18:37:58.874Z,19.00
2019-06-08T18:40:29.082Z,18.70
2019-06-08T18:42:59.328Z,18.70
2019-06-08T18:45:29.900Z,18.80
2019-06-08T18:48:00.078Z,18.80
2019-06-08T18:50:30.281Z,18.90
2019-06-08T18:53:00.451Z,18.90
2019-06-08T18:55:30.691Z,18.70
2019-06-08T18:58:08.585Z,18.70
2019-06-08T19:00:40.026Z,18.60
2019-06-08T19:03:09.240Z,18.50
2019-06-08T19:05:43.088Z,18.50
2019-06-08T19:08:11.323Z,18.30
2019-06-08T19:10:42.708Z,18.40
2019-06-08T19:13:13.441Z,18.30
2019-06-08T19:15:47.976Z,18.30
2019-06-08T19:18:41.445Z,18.10
2019-06-08T19:21:10.583Z,18.10
2019-06-08T19:23:43.323Z,17.90
2019-06-08T19:26:12.929Z,17.90
2019-06-08T19:28:47.652Z,17.80
2019-06-08T19:31:15.032Z,17.80
2019-06-08T19:33:48.991Z,17.90
2019-06-08T19:36:17.256Z,17.80
2019-06-08T19:38:53.397Z,17.70
2019-06-08T19:41:19.546Z,17.60
2019-06-08T19:43:54.637Z,17.70
2019-06-08T19:46:21.651Z,17.60
2019-06-08T19:48:54.986Z,17.60
2019-06-08T19:51:23.886Z,17.50
2019-06-08T19:53:58.057Z,17.60
2019-06-08T19:56:28.872Z,17.70
2019-06-08T19:59:04.726Z,17.60
2019-06-08T20:01:31.159Z,17.50
2019-06-08T20:04:01.649Z,17.50
2019-06-08T20:06:32.021Z,17.30
2019-06-08T20:09:02.376Z,17.30
2019-06-08T20:11:33.006Z,17.40
2019-06-08T20:14:03.054Z,17.50
2019-06-08T20:16:33.239Z,17.40
2019-06-08T20:19:03.467Z,17.20
2019-06-08T20:21:33.700Z,17.20
2019-06-08T20:24:03.928Z,17.10
2019-06-08T20:26:34.172Z,17.10
2019-06-08T20:29:15.536Z,17.10
2019-06-08T20:31:38.558Z,17.20
2019-06-08T20:34:08.142Z,17.10
2019-06-08T20:36:38.336Z,17.10
2019-06-08T20:39:08.871Z,17.10
2019-06-08T20:41:39.135Z,17.10
2019-06-08T20:44:09.506Z,16.90
2019-06-08T20:46:39.687Z,17.00
2019-06-08T20:49:09.885Z,17.00
2019-06-08T20:51:40.080Z,16.70
2019-06-08T20:54:10.274Z,16.80
2019-06-08T20:56:41.442Z,16.90
2019-06-08T20:59:24.287Z,16.80
2019-06-08T21:01:43.700Z,16.80
2019-06-08T21:04:14.106Z,16.90
2019-06-08T21:06:45.673Z,16.80
2019-06-08T21:09:18.522Z,16.80
2019-06-08T21:11:50.821Z,16.70
2019-06-08T21:14:20.619Z,16.60
2019-06-08T21:16:51.955Z,16.50
2019-06-08T21:19:22.696Z,16.40
2019-06-08T21:21:54.370Z,16.40
2019-06-08T21:24:24.788Z,16.40
2019-06-08T21:26:57.311Z,16.40
2019-06-08T21:29:38.863Z,16.40
2019-06-08T21:32:02.077Z,16.40
2019-06-08T21:34:31.060Z,16.30
2019-06-08T21:37:01.270Z,16.20
2019-06-08T21:39:31.524Z,16.20
2019-06-08T21:42:03.168Z,16.20
2019-06-08T21:44:33.667Z,16.10
2019-06-08T21:47:03.936Z,16.20
2019-06-08T21:49:34.207Z,16.10
2019-06-08T21:52:04.463Z,16.10
2019-06-08T21:54:34.736Z,16.20
2019-06-08T21:57:08.915Z,16.10
2019-06-08T21:59:37.895Z,16.10
2019-06-08T22:02:08.326Z,16.20
2019-06-08T22:04:38.635Z,16.30
2019-06-08T22:07:08.835Z,16.10
2019-06-08T22:09:39.010Z,15.80
2019-06-08T22:12:09.203Z,15.70
2019-06-08T22:14:39.395Z,15.70
2019-06-08T22:17:09.660Z,15.70
2019-06-08T22:19:39.855Z,15.80
2019-06-08T22:22:10.042Z,15.70
2019-06-08T22:24:40.255Z,15.80
2019-06-08T22:27:10.438Z,15.70
2019-06-08T22:29:40.631Z,15.80
2019-06-08T22:32:10.874Z,15.70
2019-06-08T22:35:01.784Z,15.90
2019-06-08T22:37:32.566Z,15.80
2019-06-08T22:40:03.631Z,15.50
2019-06-08T22:42:33.894Z,15.50
2019-06-08T22:45:08.361Z,15.50
2019-06-08T22:47:39.713Z,15.60
2019-06-08T22:50:10.887Z,15.70
2019-06-08T22:52:41.075Z,15.80
2019-06-08T22:55:11.347Z,15.70
2019-06-08T22:57:41.514Z,15.70
2019-06-08T23:00:17.486Z,15.70
2019-06-08T23:02:43.782Z,15.50
2019-06-08T23:05:14.063Z,15.60
2019-06-08T23:08:28.377Z,15.40
2019-06-08T23:11:00.401Z,15.50
2019-06-08T23:13:30.759Z,15.50
2019-06-08T23:16:02.635Z,15.50
2019-06-08T23:18:34.398Z,15.40
2019-06-08T23:21:06.562Z,15.30
2019-06-08T23:23:38.071Z,15.40
2019-06-08T23:26:10.519Z,15.30
2019-06-08T23:28:40.538Z,15.30
2019-06-08T23:31:21.423Z,15.30
2019-06-08T23:33:42.789Z,15.30
2019-06-08T23:38:44.941Z,15.20
2019-06-08T23:41:17.556Z,15.20
2019-06-08T23:43:48.088Z,15.20
2019-06-08T23:46:18.230Z,15.30
2019-06-08T23:48:48.690Z,15.30
2019-06-08T23:51:18.970Z,15.20
